Map

Track Data

SID SEASON NUMBER BASIN SUBBASIN NAME ISO_TIME NATURE LAT LON WMO_WIND WMO_PRES WMO_AGENCY TRACK_TYPE DIST2LAND LANDFALL IFLAG USA_AGENCY USA_ATCF_ID USA_LAT USA_LON USA_RECORD USA_STATUS USA_WIND USA_PRES USA_SSHS USA_R34_NE USA_R34_SE USA_R34_SW USA_R34_NW USA_R50_NE USA_R50_SE USA_R50_SW USA_R50_NW USA_R64_NE USA_R64_SE USA_R64_SW USA_R64_NW USA_POCI USA_ROCI USA_RMW USA_EYE TOKYO_LAT TOKYO_LON TOKYO_GRADE TOKYO_WIND TOKYO_PRES TOKYO_R50_DIR TOKYO_R50_LONG TOKYO_R50_SHORT TOKYO_R30_DIR TOKYO_R30_LONG TOKYO_R30_SHORT TOKYO_LAND CMA_LAT CMA_LON CMA_CAT CMA_WIND CMA_PRES HKO_LAT HKO_LON HKO_CAT HKO_WIND HKO_PRES NEWDELHI_LAT NEWDELHI_LON NEWDELHI_GRADE NEWDELHI_WIND NEWDELHI_PRES NEWDELHI_CI NEWDELHI_DP NEWDELHI_POCI REUNION_LAT REUNION_LON REUNION_TYPE REUNION_WIND REUNION_PRES REUNION_TNUM REUNION_CI REUNION_RMW REUNION_R34_NE REUNION_R34_SE REUNION_R34_SW REUNION_R34_NW REUNION_R50_NE REUNION_R50_SE REUNION_R50_SW REUNION_R50_NW REUNION_R64_NE REUNION_R64_SE REUNION_R64_SW REUNION_R64_NW BOM_LAT BOM_LON BOM_TYPE BOM_WIND BOM_PRES BOM_TNUM BOM_CI BOM_RMW BOM_R34_NE BOM_R34_SE BOM_R34_SW BOM_R34_NW BOM_R50_NE BOM_R50_SE BOM_R50_SW BOM_R50_NW BOM_R64_NE BOM_R64_SE BOM_R64_SW BOM_R64_NW BOM_ROCI BOM_POCI BOM_EYE BOM_POS_METHOD BOM_PRES_METHOD NADI_LAT NADI_LON NADI_CAT NADI_WIND NADI_PRES WELLINGTON_LAT WELLINGTON_LON WELLINGTON_WIND WELLINGTON_PRES DS824_LAT DS824_LON DS824_STAGE DS824_WIND DS824_PRES TD9636_LAT TD9636_LON TD9636_STAGE TD9636_WIND TD9636_PRES TD9635_LAT TD9635_LON TD9635_WIND TD9635_PRES TD9635_ROCI NEUMANN_LAT NEUMANN_LON NEUMANN_CLASS NEUMANN_WIND NEUMANN_PRES MLC_LAT MLC_LON MLC_CLASS MLC_WIND MLC_PRES USA_GUST BOM_GUST BOM_GUST_PER REUNION_GUST REUNION_GUST_PER USA_SEAHGT USA_SEARAD_NE USA_SEARAD_SE USA_SEARAD_SW USA_SEARAD_NW STORM_SPEED STORM_DIR
1912194S18135 1913 28 SP EA NOT_NAMED 1912-07-11 12:00:00 NR -18.4000 135.000 main 0 0 __________O___ -1 -18.4000 135.000 7 5 310
1912194S18135 1913 28 SI WA NOT_NAMED 1912-07-11 15:00:00 NR -18.2457 134.803 main 0 0 __________P___ -1 -18.2457 134.803 7 4 311
1912194S18135 1913 28 SI WA NOT_NAMED 1912-07-11 18:00:00 NR -18.1631 134.714 main 0 0 __________P___ -1 -18.1631 134.714 7 0 57
1912194S18135 1913 28 SI WA NOT_NAMED 1912-07-11 21:00:00 NR -18.2242 134.843 main 0 0 __________P___ -1 -18.2242 134.843 7 7 121
1912194S18135 1913 28 SP EA NOT_NAMED 1912-07-12 00:00:00 NR -18.5000 135.300 main 0 0 __________O___ -1 -18.5000 135.300 7 15 123
1912194S18135 1913 28 SP EA NOT_NAMED 1912-07-12 03:00:00 NR -19.0297 136.153 main 0 0 __________P___ -1 -19.0297 136.153 7 23 123
1912194S18135 1913 28 SP EA NOT_NAMED 1912-07-12 06:00:00 NR -19.7303 137.292 main 0 0 __________P___ -1 -19.7303 137.292 7 27 123
1912194S18135 1913 28 SP EA NOT_NAMED 1912-07-12 09:00:00 NR -20.4897 138.562 main 0 0 __________P___ -1 -20.4897 138.562 7 28 122
1912194S18135 1913 28 SP EA NOT_NAMED 1912-07-12 12:00:00 NR -21.2000 139.800 main 0 0 __________O___ -1 -21.2000 139.800 7 24 121
1912194S18135 1913 28 SP EA NOT_NAMED 1912-07-12 15:00:00 NR -21.7024 140.754 main 0 0 __________P___ -1 -21.7024 140.754 7 20 119
1912194S18135 1913 28 SP EA NOT_NAMED 1912-07-12 18:00:00 NR -22.1469 141.645 main 0 0 __________P___ -1 -22.1469 141.645 7 18 118
1912194S18135 1913 28 SP EA NOT_NAMED 1912-07-12 21:00:00 NR -22.5682 142.513 main 0 0 __________P___ -1 -22.5682 142.513 7 18 118
1912194S18135 1913 28 SP EA NOT_NAMED 1912-07-13 00:00:00 NR -23.0000 143.400 main 0 0 __________O___ -1 -23.0000 143.400 7 20 118
1912194S18135 1913 28 SP EA NOT_NAMED 1912-07-13 03:00:00 NR -23.4970 144.376 main 0 0 __________P___ -1 -23.4970 144.376 7 21 119
1912194S18135 1913 28 SP EA NOT_NAMED 1912-07-13 06:00:00 NR -24.0064 145.378 main 0 0 __________P___ -1 -24.0064 145.378 7 21 119
1912194S18135 1913 28 SP EA NOT_NAMED 1912-07-13 09:00:00 NR -24.5125 146.392 main 0 0 __________P___ -1 -24.5125 146.392 7 21 118
1912194S18135 1913 28 SP EA NOT_NAMED 1912-07-13 12:00:00 NR -25.0000 147.400 main 0 0 __________O___ -1 -25.0000 147.400 7 20 117
1912194S18135 1913 28 SP EA NOT_NAMED 1912-07-13 15:00:00 NR -25.4008 148.329 main 0 0 __________P___ -1 -25.4008 148.329 7 19 115
1912194S18135 1913 28 SP EA NOT_NAMED 1912-07-13 18:00:00 NR -25.7898 149.257 main 0 0 __________P___ -1 -25.7898 149.257 7 19 115
1912194S18135 1913 28 SP EA NOT_NAMED 1912-07-13 21:00:00 NR -26.2092 150.231 main 0 0 __________P___ -1 -26.2092 150.231 7 20 116
1912194S18135 1913 28 SP EA NOT_NAMED 1912-07-14 00:00:00 NR -26.7000 151.300 main 0 0 __________O___ -1 -26.7000 151.300 7 23 117
1912194S18135 1913 28 SP EA NOT_NAMED 1912-07-14 03:00:00 NR -27.2847 152.555 main 0 0 __________P___ -1 -27.2847 152.555 7 26 118
1912194S18135 1913 28 SP EA NOT_NAMED 1912-07-14 06:00:00 NR -27.9402 153.912 main 44 44 __________P___ -1 -27.9402 153.912 7 28 119
1912194S18135 1913 28 SP EA NOT_NAMED 1912-07-14 09:00:00 NR -28.6499 155.313 main 165 165 __________P___ -1 -28.6499 155.313 7 29 121
1912194S18135 1913 28 SP EA NOT_NAMED 1912-07-14 12:00:00 NR -29.4000 156.700 main 305 305 __________O___ -1 -29.4000 156.700 7 28 124
1912194S18135 1913 28 SP EA NOT_NAMED 1912-07-14 15:00:00 NR -30.2419 158.020 main 449 449 __________P___ -1 -30.2419 158.020 7 28 127
1912194S18135 1913 28 SP EA NOT_NAMED 1912-07-14 18:00:00 NR -31.1086 159.316 main 589 589 __________P___ -1 -31.1086 159.316 7 28 127
1912194S18135 1913 28 SP MM NOT_NAMED 1912-07-14 21:00:00 NR -31.9209 160.581 main 715 715 __________P___ -1 -31.9209 160.581 7 26 125
1912194S18135 1913 28 SP MM NOT_NAMED 1912-07-15 00:00:00 NR -32.6000 161.800 main 836 836 __________O___ -1 -32.6000 161.800 7 23 120
1912194S18135 1913 28 SP MM NOT_NAMED 1912-07-15 03:00:00 NR -33.0646 162.932 main 907 800 __________P___ -1 -33.0646 162.932 7 20 113
1912194S18135 1913 28 SP MM NOT_NAMED 1912-07-15 06:00:00 NR -33.3921 164.012 main 800 705 __________P___ -1 -33.3921 164.012 7 19 107
1912194S18135 1913 28 SP MM NOT_NAMED 1912-07-15 09:00:00 NR -33.6240 165.085 main 696 601 __________P___ -1 -33.6240 165.085 7 19 103
1912194S18135 1913 28 SP MM NOT_NAMED 1912-07-15 12:00:00 NR -33.8000 166.200 main 592 490 __________O___ -1 -33.8000 166.200 7 19 100
1912194S18135 1913 28 SP MM NOT_NAMED 1912-07-15 15:00:00 NR -33.9518 167.393 main 480 369 __________P___ -1 -33.9518 167.393 7 21 98
1912194S18135 1913 28 SP MM NOT_NAMED 1912-07-15 18:00:00 NR -34.0853 168.656 main 360 249 __________P___ -1 -34.0853 168.656 7 21 97
1912194S18135 1913 28 SP MM NOT_NAMED 1912-07-15 21:00:00 NR -34.2010 169.966 main 240 130 __________P___ -1 -34.2010 169.966 7 22 96
1912194S18135 1913 28 SP MM NOT_NAMED 1912-07-16 00:00:00 NR -34.3000 171.300 main 121 __________O___ -1 -34.3000 171.300 7 22 95

Digital Typhoon Data and Search

About IBTrACS Database

This database is a web-friendly format of International Best Track Archive for Climate Stewardship (IBTrACS), a global best track data archive curated by NOAA dating back to 1842.

Updated: 2021-11-26